sensor_id;sensor_type;location;lat;lon;timestamp;temperature;humidity
33699;DHT22;20032;52.436;13.312;2023-02-22T00:00:49;8.80;99.90
33699;DHT22;20032;52.436;13.312;2023-02-22T00:03:20;8.80;99.90
33699;DHT22;20032;52.436;13.312;2023-02-22T00:05:50;8.70;99.90
33699;DHT22;20032;52.436;13.312;2023-02-22T00:08:21;8.80;99.90
33699;DHT22;20032;52.436;13.312;2023-02-22T00:10:47;8.80;99.90
33699;DHT22;20032;52.436;13.312;2023-02-22T00:13:16;8.80;99.90
33699;DHT22;20032;52.436;13.312;2023-02-22T00:15:42;8.70;99.90
33699;DHT22;20032;52.436;13.312;2023-02-22T00:18:11;8.80;99.90
33699;DHT22;20032;52.436;13.312;2023-02-22T00:20:37;8.80;99.90
33699;DHT22;20032;52.436;13.312;2023-02-22T00:23:05;8.80;99.90
33699;DHT22;20032;52.436;13.312;2023-02-22T00:25:33;8.70;99.90
33699;DHT22;20032;52.436;13.312;2023-02-22T00:27:59;8.70;99.90
33699;DHT22;20032;52.436;13.312;2023-02-22T00:30:26;8.60;99.90
33699;DHT22;20032;52.436;13.312;2023-02-22T00:32:53;8.60;99.90
33699;DHT22;20032;52.436;13.312;2023-02-22T00:35:21;8.60;99.90
33699;DHT22;20032;52.436;13.312;2023-02-22T00:37:48;8.50;99.90
33699;DHT22;20032;52.436;13.312;2023-02-22T00:40:17;8.50;99.90
33699;DHT22;20032;52.436;13.312;2023-02-22T00:42:43;8.60;99.90
33699;DHT22;20032;52.436;13.312;2023-02-22T00:45:10;8.60;99.90
33699;DHT22;20032;52.436;13.312;2023-02-22T00:47:35;8.60;99.90
33699;DHT22;20032;52.436;13.312;2023-02-22T00:50:00;8.40;99.90
33699;DHT22;20032;52.436;13.312;2023-02-22T00:52:27;8.40;99.90
33699;DHT22;20032;52.436;13.312;2023-02-22T00:54:53;8.40;99.90
33699;DHT22;20032;52.436;13.312;2023-02-22T00:57:20;8.40;99.90
33699;DHT22;20032;52.436;13.312;2023-02-22T00:59:45;8.40;99.90
33699;DHT22;20032;52.436;13.312;2023-02-22T01:02:11;8.40;99.90
33699;DHT22;20032;52.436;13.312;2023-02-22T01:04:37;8.40;99.90
33699;DHT22;20032;52.436;13.312;2023-02-22T01:07:03;8.30;99.90
33699;DHT22;20032;52.436;13.312;2023-02-22T01:09:28;8.30;99.90
33699;DHT22;20032;52.436;13.312;2023-02-22T01:11:54;8.20;99.90
33699;DHT22;20032;52.436;13.312;2023-02-22T01:14:21;8.10;99.90
33699;DHT22;20032;52.436;13.312;2023-02-22T01:16:49;7.90;99.90
33699;DHT22;20032;52.436;13.312;2023-02-22T01:19:15;7.90;99.90
33699;DHT22;20032;52.436;13.312;2023-02-22T01:21:40;7.90;99.90
33699;DHT22;20032;52.436;13.312;2023-02-22T01:24:06;7.90;99.90
33699;DHT22;20032;52.436;13.312;2023-02-22T01:26:32;8.00;99.90
33699;DHT22;20032;52.436;13.312;2023-02-22T01:28:57;8.00;99.90
33699;DHT22;20032;52.436;13.312;2023-02-22T01:31:23;8.00;99.90
33699;DHT22;20032;52.436;13.312;2023-02-22T01:33:49;7.90;99.90
33699;DHT22;20032;52.436;13.312;2023-02-22T01:36:16;7.90;99.90
33699;DHT22;20032;52.436;13.312;2023-02-22T01:38:43;7.90;99.90
33699;DHT22;20032;52.436;13.312;2023-02-22T01:41:10;7.70;99.90
33699;DHT22;20032;52.436;13.312;2023-02-22T01:43:35;7.50;99.90
33699;DHT22;20032;52.436;13.312;2023-02-22T01:46:22;7.40;99.90
33699;DHT22;20032;52.436;13.312;2023-02-22T01:51:27;7.30;99.90
33699;DHT22;20032;52.436;13.312;2023-02-22T01:54:00;7.40;99.90
33699;DHT22;20032;52.436;13.312;2023-02-22T01:56:27;7.50;99.90
33699;DHT22;20032;52.436;13.312;2023-02-22T01:59:00;7.50;99.90
33699;DHT22;20032;52.436;13.312;2023-02-22T02:01:27;7.60;99.90
33699;DHT22;20032;52.436;13.312;2023-02-22T02:03:56;7.60;99.90
33699;DHT22;20032;52.436;13.312;2023-02-22T02:06:23;7.60;99.90
33699;DHT22;20032;52.436;13.312;2023-02-22T02:08:57;7.60;99.90
33699;DHT22;20032;52.436;13.312;2023-02-22T02:11:25;7.60;99.90
33699;DHT22;20032;52.436;13.312;2023-02-22T02:13:52;7.60;99.90
33699;DHT22;20032;52.436;13.312;2023-02-22T02:16:20;7.50;99.90
33699;DHT22;20032;52.436;13.312;2023-02-22T02:18:46;7.60;99.90
33699;DHT22;20032;52.436;13.312;2023-02-22T02:22:00;7.60;99.90
33699;DHT22;20032;52.436;13.312;2023-02-22T02:24:21;7.40;99.90
33699;DHT22;20032;52.436;13.312;2023-02-22T02:27:15;7.50;99.90
33699;DHT22;20032;52.436;13.312;2023-02-22T02:30:20;7.50;99.90
33699;DHT22;20032;52.436;13.312;2023-02-22T02:32:50;7.50;99.90
33699;DHT22;20032;52.436;13.312;2023-02-22T02:38:17;7.70;99.90
33699;DHT22;20032;52.436;13.312;2023-02-22T02:41:02;7.60;99.90
33699;DHT22;20032;52.436;13.312;2023-02-22T02:43:38;7.50;99.90
33699;DHT22;20032;52.436;13.312;2023-02-22T02:46:31;7.70;99.90
33699;DHT22;20032;52.436;13.312;2023-02-22T02:49:01;7.70;99.90
33699;DHT22;20032;52.436;13.312;2023-02-22T02:51:31;7.60;99.90
33699;DHT22;20032;52.436;13.312;2023-02-22T02:53:58;7.50;99.90
33699;DHT22;20032;52.436;13.312;2023-02-22T02:56:24;7.50;99.90
33699;DHT22;20032;52.436;13.312;2023-02-22T02:58:52;7.50;99.90
33699;DHT22;20032;52.436;13.312;2023-02-22T03:01:34;7.50;99.90
33699;DHT22;20032;52.436;13.312;2023-02-22T03:04:26;7.40;99.90
33699;DHT22;20032;52.436;13.312;2023-02-22T03:14:14;7.40;99.90
33699;DHT22;20032;52.436;13.312;2023-02-22T03:16:13;7.50;99.90
33699;DHT22;20032;52.436;13.312;2023-02-22T03:24:07;7.40;99.90
33699;DHT22;20032;52.436;13.312;2023-02-22T03:26:40;7.30;99.90
33699;DHT22;20032;52.436;13.312;2023-02-22T03:29:08;7.30;99.90
33699;DHT22;20032;52.436;13.312;2023-02-22T03:31:39;7.40;99.90
33699;DHT22;20032;52.436;13.312;2023-02-22T03:34:14;7.40;99.90
33699;DHT22;20032;52.436;13.312;2023-02-22T03:36:46;7.30;99.90
33699;DHT22;20032;52.436;13.312;2023-02-22T03:39:15;7.40;99.90
33699;DHT22;20032;52.436;13.312;2023-02-22T03:41:45;7.40;99.90
33699;DHT22;20032;52.436;13.312;2023-02-22T03:44:17;7.40;99.90
33699;DHT22;20032;52.436;13.312;2023-02-22T03:46:46;7.40;99.90
33699;DHT22;20032;52.436;13.312;2023-02-22T03:49:22;7.40;99.90
33699;DHT22;20032;52.436;13.312;2023-02-22T03:51:50;7.30;99.90
33699;DHT22;20032;52.436;13.312;2023-02-22T03:54:17;7.50;99.90
33699;DHT22;20032;52.436;13.312;2023-02-22T03:56:49;7.60;99.90
33699;DHT22;20032;52.436;13.312;2023-02-22T03:59:17;7.70;99.90
33699;DHT22;20032;52.436;13.312;2023-02-22T04:01:43;7.70;99.90
33699;DHT22;20032;52.436;13.312;2023-02-22T04:04:08;7.70;99.90
33699;DHT22;20032;52.436;13.312;2023-02-22T04:06:34;7.70;99.90
33699;DHT22;20032;52.436;13.312;2023-02-22T04:08:59;7.70;99.90
33699;DHT22;20032;52.436;13.312;2023-02-22T04:11:25;7.60;99.90
33699;DHT22;20032;52.436;13.312;2023-02-22T04:13:50;7.50;99.90
33699;DHT22;20032;52.436;13.312;2023-02-22T04:16:16;7.60;99.90
33699;DHT22;20032;52.436;13.312;2023-02-22T04:18:41;7.60;99.90
33699;DHT22;20032;52.436;13.312;2023-02-22T04:21:07;7.60;99.90
33699;DHT22;20032;52.436;13.312;2023-02-22T04:23:33;7.60;99.90
33699;DHT22;20032;52.436;13.312;2023-02-22T04:25:59;7.60;99.90
33699;DHT22;20032;52.436;13.312;2023-02-22T04:28:24;7.60;99.90
33699;DHT22;20032;52.436;13.312;2023-02-22T04:30:49;7.70;99.90
33699;DHT22;20032;52.436;13.312;2023-02-22T04:33:15;7.60;99.90
33699;DHT22;20032;52.436;13.312;2023-02-22T04:35:40;7.60;99.90
33699;DHT22;20032;52.436;13.312;2023-02-22T04:38:06;7.70;99.90
33699;DHT22;20032;52.436;13.312;2023-02-22T04:40:33;7.70;99.90
33699;DHT22;20032;52.436;13.312;2023-02-22T04:42:58;7.70;99.90
33699;DHT22;20032;52.436;13.312;2023-02-22T04:45:24;7.70;99.90
33699;DHT22;20032;52.436;13.312;2023-02-22T04:47:50;7.70;99.90
33699;DHT22;20032;52.436;13.312;2023-02-22T04:50:16;7.70;99.90
33699;DHT22;20032;52.436;13.312;2023-02-22T04:52:41;7.70;99.90
33699;DHT22;20032;52.436;13.312;2023-02-22T04:55:07;7.60;99.90
33699;DHT22;20032;52.436;13.312;2023-02-22T04:57:32;7.50;99.90
33699;DHT22;20032;52.436;13.312;2023-02-22T04:59:58;7.40;99.90
33699;DHT22;20032;52.436;13.312;2023-02-22T05:02:24;7.30;99.90
33699;DHT22;20032;52.436;13.312;2023-02-22T05:04:50;7.40;99.90
33699;DHT22;20032;52.436;13.312;2023-02-22T05:07:16;7.40;99.90
33699;DHT22;20032;52.436;13.312;2023-02-22T05:09:42;7.40;99.90
33699;DHT22;20032;52.436;13.312;2023-02-22T05:12:08;7.30;99.90
33699;DHT22;20032;52.436;13.312;2023-02-22T05:14:33;7.40;99.90
33699;DHT22;20032;52.436;13.312;2023-02-22T05:17:00;7.50;99.90
33699;DHT22;20032;52.436;13.312;2023-02-22T05:19:26;7.50;99.90
33699;DHT22;20032;52.436;13.312;2023-02-22T05:21:51;7.50;99.90
33699;DHT22;20032;52.436;13.312;2023-02-22T05:24:17;7.40;99.90
33699;DHT22;20032;52.436;13.312;2023-02-22T05:26:43;7.30;99.90
33699;DHT22;20032;52.436;13.312;2023-02-22T05:29:09;7.30;99.90
33699;DHT22;20032;52.436;13.312;2023-02-22T05:31:35;7.30;99.90
33699;DHT22;20032;52.436;13.312;2023-02-22T05:34:00;7.30;99.90
33699;DHT22;20032;52.436;13.312;2023-02-22T05:36:25;7.30;99.90
33699;DHT22;20032;52.436;13.312;2023-02-22T05:38:52;7.30;99.90
33699;DHT22;20032;52.436;13.312;2023-02-22T05:41:18;7.30;99.90
33699;DHT22;20032;52.436;13.312;2023-02-22T05:43:44;7.30;99.90
33699;DHT22;20032;52.436;13.312;2023-02-22T05:46:10;7.40;99.90
33699;DHT22;20032;52.436;13.312;2023-02-22T05:48:35;7.30;99.90
33699;DHT22;20032;52.436;13.312;2023-02-22T05:51:01;7.30;99.90
33699;DHT22;20032;52.436;13.312;2023-02-22T05:53:28;7.20;99.90
33699;DHT22;20032;52.436;13.312;2023-02-22T05:55:53;7.20;99.90
33699;DHT22;20032;52.436;13.312;2023-02-22T05:58:19;7.30;99.90
33699;DHT22;20032;52.436;13.312;2023-02-22T06:00:44;7.30;99.90
33699;DHT22;20032;52.436;13.312;2023-02-22T06:03:10;7.30;99.90
33699;DHT22;20032;52.436;13.312;2023-02-22T06:05:37;7.30;99.90
33699;DHT22;20032;52.436;13.312;2023-02-22T06:08:04;7.30;99.90
33699;DHT22;20032;52.436;13.312;2023-02-22T06:10:30;7.20;99.90
33699;DHT22;20032;52.436;13.312;2023-02-22T06:12:56;7.20;99.90
33699;DHT22;20032;52.436;13.312;2023-02-22T06:15:23;7.20;99.90
33699;DHT22;20032;52.436;13.312;2023-02-22T06:17:49;7.30;99.90
33699;DHT22;20032;52.436;13.312;2023-02-22T06:20:18;7.30;99.90
33699;DHT22;20032;52.436;13.312;2023-02-22T06:22:47;7.30;99.90
33699;DHT22;20032;52.436;13.312;2023-02-22T06:25:15;7.30;99.90
33699;DHT22;20032;52.436;13.312;2023-02-22T06:27:41;7.30;99.90
33699;DHT22;20032;52.436;13.312;2023-02-22T06:30:08;7.40;99.90
33699;DHT22;20032;52.436;13.312;2023-02-22T06:32:34;7.50;99.90
33699;DHT22;20032;52.436;13.312;2023-02-22T06:34:59;7.50;99.90
33699;DHT22;20032;52.436;13.312;2023-02-22T06:37:25;7.40;99.90
33699;DHT22;20032;52.436;13.312;2023-02-22T06:39:50;7.40;99.90
33699;DHT22;20032;52.436;13.312;2023-02-22T06:42:16;7.50;99.90
33699;DHT22;20032;52.436;13.312;2023-02-22T06:44:41;7.50;99.90
33699;DHT22;20032;52.436;13.312;2023-02-22T06:47:07;7.50;99.90
33699;DHT22;20032;52.436;13.312;2023-02-22T06:49:33;7.60;99.90
33699;DHT22;20032;52.436;13.312;2023-02-22T06:51:58;7.60;99.90
33699;DHT22;20032;52.436;13.312;2023-02-22T06:54:24;7.60;99.90
33699;DHT22;20032;52.436;13.312;2023-02-22T06:56:49;7.60;99.90
33699;DHT22;20032;52.436;13.312;2023-02-22T06:59:15;7.60;99.90
33699;DHT22;20032;52.436;13.312;2023-02-22T07:01:41;7.60;99.90
33699;DHT22;20032;52.436;13.312;2023-02-22T07:04:07;7.60;99.90
33699;DHT22;20032;52.436;13.312;2023-02-22T07:06:32;7.60;99.90
33699;DHT22;20032;52.436;13.312;2023-02-22T07:08:58;7.70;99.90
33699;DHT22;20032;52.436;13.312;2023-02-22T07:11:23;7.70;99.90
33699;DHT22;20032;52.436;13.312;2023-02-22T07:13:49;7.70;99.90
33699;DHT22;20032;52.436;13.312;2023-02-22T07:16:14;7.70;99.90
33699;DHT22;20032;52.436;13.312;2023-02-22T07:18:40;7.70;99.90
33699;DHT22;20032;52.436;13.312;2023-02-22T07:21:05;7.70;99.90
33699;DHT22;20032;52.436;13.312;2023-02-22T07:23:32;7.80;99.90
33699;DHT22;20032;52.436;13.312;2023-02-22T07:25:59;7.80;99.90
33699;DHT22;20032;52.436;13.312;2023-02-22T07:28:25;7.80;99.90
33699;DHT22;20032;52.436;13.312;2023-02-22T07:30:51;7.80;99.90
33699;DHT22;20032;52.436;13.312;2023-02-22T07:33:16;7.90;99.90
33699;DHT22;20032;52.436;13.312;2023-02-22T07:35:45;8.00;99.90
33699;DHT22;20032;52.436;13.312;2023-02-22T07:38:11;7.90;99.90
33699;DHT22;20032;52.436;13.312;2023-02-22T07:40:38;8.00;99.90
33699;DHT22;20032;52.436;13.312;2023-02-22T07:45:39;8.00;99.90
33699;DHT22;20032;52.436;13.312;2023-02-22T07:48:05;8.10;99.90
33699;DHT22;20032;52.436;13.312;2023-02-22T07:50:33;8.10;99.90
33699;DHT22;20032;52.436;13.312;2023-02-22T07:53:02;8.20;99.90
33699;DHT22;20032;52.436;13.312;2023-02-22T07:55:29;8.10;99.90
33699;DHT22;20032;52.436;13.312;2023-02-22T07:57:57;8.20;99.90
33699;DHT22;20032;52.436;13.312;2023-02-22T08:00:25;8.20;99.90
33699;DHT22;20032;52.436;13.312;2023-02-22T08:02:52;8.10;99.90
33699;DHT22;20032;52.436;13.312;2023-02-22T08:05:18;8.10;99.90
33699;DHT22;20032;52.436;13.312;2023-02-22T08:07:44;8.10;99.90
33699;DHT22;20032;52.436;13.312;2023-02-22T08:10:10;8.10;99.90
33699;DHT22;20032;52.436;13.312;2023-02-22T08:12:37;8.20;99.90
33699;DHT22;20032;52.436;13.312;2023-02-22T08:15:04;8.10;99.90
33699;DHT22;20032;52.436;13.312;2023-02-22T08:17:30;8.20;99.90
33699;DHT22;20032;52.436;13.312;2023-02-22T08:19:55;8.30;99.90
33699;DHT22;20032;52.436;13.312;2023-02-22T08:22:21;8.20;99.90
33699;DHT22;20032;52.436;13.312;2023-02-22T08:24:48;8.20;99.90
33699;DHT22;20032;52.436;13.312;2023-02-22T08:27:13;8.20;99.90
33699;DHT22;20032;52.436;13.312;2023-02-22T08:29:39;8.30;99.90
33699;DHT22;20032;52.436;13.312;2023-02-22T08:32:04;8.40;99.90
33699;DHT22;20032;52.436;13.312;2023-02-22T08:34:31;8.30;99.90
33699;DHT22;20032;52.436;13.312;2023-02-22T08:36:57;8.20;99.90
33699;DHT22;20032;52.436;13.312;2023-02-22T08:39:23;8.20;99.90
33699;DHT22;20032;52.436;13.312;2023-02-22T08:41:48;8.30;99.90
33699;DHT22;20032;52.436;13.312;2023-02-22T08:44:14;8.30;99.90
33699;DHT22;20032;52.436;13.312;2023-02-22T08:46:39;8.40;99.90
33699;DHT22;20032;52.436;13.312;2023-02-22T08:49:05;8.40;99.90
33699;DHT22;20032;52.436;13.312;2023-02-22T08:51:34;8.40;99.90
33699;DHT22;20032;52.436;13.312;2023-02-22T08:54:01;8.40;99.90
33699;DHT22;20032;52.436;13.312;2023-02-22T08:56:28;8.40;99.90
33699;DHT22;20032;52.436;13.312;2023-02-22T08:58:54;8.50;99.90
33699;DHT22;20032;52.436;13.312;2023-02-22T09:01:22;8.50;99.90
33699;DHT22;20032;52.436;13.312;2023-02-22T09:03:49;8.50;99.90
33699;DHT22;20032;52.436;13.312;2023-02-22T09:06:15;8.50;99.90
33699;DHT22;20032;52.436;13.312;2023-02-22T09:08:40;8.50;99.90
33699;DHT22;20032;52.436;13.312;2023-02-22T09:11:06;8.50;99.90
33699;DHT22;20032;52.436;13.312;2023-02-22T09:13:31;8.50;99.90
33699;DHT22;20032;52.436;13.312;2023-02-22T09:15:57;8.60;99.90
33699;DHT22;20032;52.436;13.312;2023-02-22T09:18:22;8.70;99.90
33699;DHT22;20032;52.436;13.312;2023-02-22T09:20:48;8.80;99.90
33699;DHT22;20032;52.436;13.312;2023-02-22T09:23:13;8.70;99.90
33699;DHT22;20032;52.436;13.312;2023-02-22T09:25:39;8.70;99.90
33699;DHT22;20032;52.436;13.312;2023-02-22T09:28:05;8.70;99.90
33699;DHT22;20032;52.436;13.312;2023-02-22T09:30:32;8.70;99.90
33699;DHT22;20032;52.436;13.312;2023-02-22T09:33:01;8.80;99.90
33699;DHT22;20032;52.436;13.312;2023-02-22T09:35:27;9.00;99.90
33699;DHT22;20032;52.436;13.312;2023-02-22T09:37:56;9.00;99.90
33699;DHT22;20032;52.436;13.312;2023-02-22T09:40:22;9.00;99.90
33699;DHT22;20032;52.436;13.312;2023-02-22T09:44:04;9.00;99.90
33699;DHT22;20032;52.436;13.312;2023-02-22T09:46:45;9.10;99.90
33699;DHT22;20032;52.436;13.312;2023-02-22T09:48:33;9.00;99.90
33699;DHT22;20032;52.436;13.312;2023-02-22T09:51:02;9.00;99.90
33699;DHT22;20032;52.436;13.312;2023-02-22T09:53:36;9.10;99.90
33699;DHT22;20032;52.436;13.312;2023-02-22T09:56:08;9.10;99.90
33699;DHT22;20032;52.436;13.312;2023-02-22T09:58:38;9.20;99.90
33699;DHT22;20032;52.436;13.312;2023-02-22T10:01:28;9.30;99.90
33699;DHT22;20032;52.436;13.312;2023-02-22T10:06:34;9.30;99.90
33699;DHT22;20032;52.436;13.312;2023-02-22T10:09:01;9.20;99.90
33699;DHT22;20032;52.436;13.312;2023-02-22T10:12:09;9.20;99.90
33699;DHT22;20032;52.436;13.312;2023-02-22T10:14:33;9.10;99.90
33699;DHT22;20032;52.436;13.312;2023-02-22T10:17:13;9.30;99.90
33699;DHT22;20032;52.436;13.312;2023-02-22T10:20:02;9.30;99.90
33699;DHT22;20032;52.436;13.312;2023-02-22T10:22:36;9.20;99.90
33699;DHT22;20032;52.436;13.312;2023-02-22T10:25:23;9.30;99.90
33699;DHT22;20032;52.436;13.312;2023-02-22T10:27:57;9.30;99.90
33699;DHT22;20032;52.436;13.312;2023-02-22T10:30:29;9.20;99.90
33699;DHT22;20032;52.436;13.312;2023-02-22T10:33:11;9.30;99.90
33699;DHT22;20032;52.436;13.312;2023-02-22T10:35:40;9.40;99.90
33699;DHT22;20032;52.436;13.312;2023-02-22T10:38:24;9.50;99.90
33699;DHT22;20032;52.436;13.312;2023-02-22T10:40:55;9.50;99.90
33699;DHT22;20032;52.436;13.312;2023-02-22T10:43:23;9.60;99.90
33699;DHT22;20032;52.436;13.312;2023-02-22T10:45:52;9.60;99.90
33699;DHT22;20032;52.436;13.312;2023-02-22T10:48:21;9.70;99.90
33699;DHT22;20032;52.436;13.312;2023-02-22T10:50:48;9.70;99.90
33699;DHT22;20032;52.436;13.312;2023-02-22T10:53:15;9.70;99.90
33699;DHT22;20032;52.436;13.312;2023-02-22T10:56:04;9.70;99.90
33699;DHT22;20032;52.436;13.312;2023-02-22T10:58:40;9.70;99.90
33699;DHT22;20032;52.436;13.312;2023-02-22T11:04:00;9.60;99.90
33699;DHT22;20032;52.436;13.312;2023-02-22T11:06:27;9.40;99.90
33699;DHT22;20032;52.436;13.312;2023-02-22T11:09:05;9.30;99.90
33699;DHT22;20032;52.436;13.312;2023-02-22T11:11:32;9.50;99.90
33699;DHT22;20032;52.436;13.312;2023-02-22T11:13:59;9.60;99.90
33699;DHT22;20032;52.436;13.312;2023-02-22T11:16:35;9.70;99.90
33699;DHT22;20032;52.436;13.312;2023-02-22T11:19:20;9.80;99.90
33699;DHT22;20032;52.436;13.312;2023-02-22T11:21:49;9.70;99.90
33699;DHT22;20032;52.436;13.312;2023-02-22T11:24:18;9.70;99.90
33699;DHT22;20032;52.436;13.312;2023-02-22T11:26:56;9.80;99.90
33699;DHT22;20032;52.436;13.312;2023-02-22T11:29:31;9.80;99.90
33699;DHT22;20032;52.436;13.312;2023-02-22T11:31:59;9.80;99.90
33699;DHT22;20032;52.436;13.312;2023-02-22T11:34:33;9.80;99.90
33699;DHT22;20032;52.436;13.312;2023-02-22T11:37:17;9.90;99.90
33699;DHT22;20032;52.436;13.312;2023-02-22T11:39:43;9.90;99.90
33699;DHT22;20032;52.436;13.312;2023-02-22T11:42:26;9.90;99.90
33699;DHT22;20032;52.436;13.312;2023-02-22T11:45:13;9.80;99.90
33699;DHT22;20032;52.436;13.312;2023-02-22T11:48:00;10.00;99.90
33699;DHT22;20032;52.436;13.312;2023-02-22T11:50:32;9.90;99.90
33699;DHT22;20032;52.436;13.312;2023-02-22T11:56:14;9.80;99.90
33699;DHT22;20032;52.436;13.312;2023-02-22T11:58:52;9.90;99.90
33699;DHT22;20032;52.436;13.312;2023-02-22T12:01:27;10.00;99.90
33699;DHT22;20032;52.436;13.312;2023-02-22T12:04:25;10.00;99.90
33699;DHT22;20032;52.436;13.312;2023-02-22T12:08:06;9.90;99.90
33699;DHT22;20032;52.436;13.312;2023-02-22T12:10:05;10.00;99.90
33699;DHT22;20032;52.436;13.312;2023-02-22T12:12:47;10.10;99.90
33699;DHT22;20032;52.436;13.312;2023-02-22T12:15:38;10.10;99.90
33699;DHT22;20032;52.436;13.312;2023-02-22T12:18:19;9.90;99.90
33699;DHT22;20032;52.436;13.312;2023-02-22T12:20:54;9.90;99.90
33699;DHT22;20032;52.436;13.312;2023-02-22T12:23:30;10.00;99.90
33699;DHT22;20032;52.436;13.312;2023-02-22T12:26:03;9.80;99.90
33699;DHT22;20032;52.436;13.312;2023-02-22T12:28:34;9.70;99.90
33699;DHT22;20032;52.436;13.312;2023-02-22T12:33:42;9.90;99.90
33699;DHT22;20032;52.436;13.312;2023-02-22T12:36:13;9.90;99.90
33699;DHT22;20032;52.436;13.312;2023-02-22T12:38:43;10.00;99.90
33699;DHT22;20032;52.436;13.312;2023-02-22T12:41:12;10.10;99.90
33699;DHT22;20032;52.436;13.312;2023-02-22T12:43:48;10.20;99.90
33699;DHT22;20032;52.436;13.312;2023-02-22T12:46:20;10.30;99.90
33699;DHT22;20032;52.436;13.312;2023-02-22T12:49:48;10.30;99.90
33699;DHT22;20032;52.436;13.312;2023-02-22T12:51:44;10.30;99.90
33699;DHT22;20032;52.436;13.312;2023-02-22T12:54:19;10.20;99.90
33699;DHT22;20032;52.436;13.312;2023-02-22T12:56:50;10.10;99.90
33699;DHT22;20032;52.436;13.312;2023-02-22T12:59:27;10.10;99.90
33699;DHT22;20032;52.436;13.312;2023-02-22T13:01:59;10.10;99.90
33699;DHT22;20032;52.436;13.312;2023-02-22T13:04:25;10.10;99.90
33699;DHT22;20032;52.436;13.312;2023-02-22T13:06:58;10.20;99.90
33699;DHT22;20032;52.436;13.312;2023-02-22T13:12:49;10.10;99.90
33699;DHT22;20032;52.436;13.312;2023-02-22T13:15:16;10.00;99.90
33699;DHT22;20032;52.436;13.312;2023-02-22T13:17:58;10.10;99.90
33699;DHT22;20032;52.436;13.312;2023-02-22T13:28:38;10.20;99.90
33699;DHT22;20032;52.436;13.312;2023-02-22T13:31:19;10.30;99.90
33699;DHT22;20032;52.436;13.312;2023-02-22T13:34:00;10.30;99.90
33699;DHT22;20032;52.436;13.312;2023-02-22T13:36:37;10.30;99.90
33699;DHT22;20032;52.436;13.312;2023-02-22T13:41:31;10.20;99.90
33699;DHT22;20032;52.436;13.312;2023-02-22T13:42:41;10.20;99.90
33699;DHT22;20032;52.436;13.312;2023-02-22T13:48:12;10.30;99.90
33699;DHT22;20032;52.436;13.312;2023-02-22T13:50:54;10.40;99.90
33699;DHT22;20032;52.436;13.312;2023-02-22T13:53:26;10.40;99.90
33699;DHT22;20032;52.436;13.312;2023-02-22T13:55:55;10.40;99.90
33699;DHT22;20032;52.436;13.312;2023-02-22T13:58:23;10.40;99.90
33699;DHT22;20032;52.436;13.312;2023-02-22T14:00:52;10.20;99.90
33699;DHT22;20032;52.436;13.312;2023-02-22T14:05:50;10.20;99.90
33699;DHT22;20032;52.436;13.312;2023-02-22T14:10:55;10.30;99.90
33699;DHT22;20032;52.436;13.312;2023-02-22T14:13:30;10.30;99.90
33699;DHT22;20032;52.436;13.312;2023-02-22T14:18:28;10.30;99.90
33699;DHT22;20032;52.436;13.312;2023-02-22T14:21:06;10.30;99.90
33699;DHT22;20032;52.436;13.312;2023-02-22T14:23:35;10.30;99.90
33699;DHT22;20032;52.436;13.312;2023-02-22T14:26:13;10.40;99.90
33699;DHT22;20032;52.436;13.312;2023-02-22T14:28:47;10.40;99.90
33699;DHT22;20032;52.436;13.312;2023-02-22T14:31:18;10.40;99.90
33699;DHT22;20032;52.436;13.312;2023-02-22T14:35:05;10.40;99.90
33699;DHT22;20032;52.436;13.312;2023-02-22T14:39:30;10.40;99.90
33699;DHT22;20032;52.436;13.312;2023-02-22T14:42:32;10.50;99.90
33699;DHT22;20032;52.436;13.312;2023-02-22T14:47:17;10.50;99.90
33699;DHT22;20032;52.436;13.312;2023-02-22T14:49:47;10.50;99.90
33699;DHT22;20032;52.436;13.312;2023-02-22T14:52:20;10.40;99.90
33699;DHT22;20032;52.436;13.312;2023-02-22T14:54:55;10.40;99.90
33699;DHT22;20032;52.436;13.312;2023-02-22T14:57:45;10.30;99.90
33699;DHT22;20032;52.436;13.312;2023-02-22T15:00:18;10.30;99.90
33699;DHT22;20032;52.436;13.312;2023-02-22T15:02:45;10.40;99.90
33699;DHT22;20032;52.436;13.312;2023-02-22T15:05:14;10.40;99.90
33699;DHT22;20032;52.436;13.312;2023-02-22T15:07:51;10.30;99.90
33699;DHT22;20032;52.436;13.312;2023-02-22T15:10:23;10.40;99.90
33699;DHT22;20032;52.436;13.312;2023-02-22T15:12:51;10.50;99.90
33699;DHT22;20032;52.436;13.312;2023-02-22T15:15:21;10.40;99.90
33699;DHT22;20032;52.436;13.312;2023-02-22T15:17:52;10.40;99.90
33699;DHT22;20032;52.436;13.312;2023-02-22T15:20:19;10.30;99.90
33699;DHT22;20032;52.436;13.312;2023-02-22T15:22:45;10.30;99.90
33699;DHT22;20032;52.436;13.312;2023-02-22T15:25:12;10.20;99.90
33699;DHT22;20032;52.436;13.312;2023-02-22T15:27:40;10.30;99.90
33699;DHT22;20032;52.436;13.312;2023-02-22T15:30:21;10.30;99.90
33699;DHT22;20032;52.436;13.312;2023-02-22T15:32:47;10.30;99.90
33699;DHT22;20032;52.436;13.312;2023-02-22T15:35:17;10.20;99.90
33699;DHT22;20032;52.436;13.312;2023-02-22T15:37:44;10.20;99.90
33699;DHT22;20032;52.436;13.312;2023-02-22T15:40:16;10.20;99.90
33699;DHT22;20032;52.436;13.312;2023-02-22T15:45:15;10.20;99.90
33699;DHT22;20032;52.436;13.312;2023-02-22T15:47:41;10.20;99.90
33699;DHT22;20032;52.436;13.312;2023-02-22T15:50:28;10.10;99.90
33699;DHT22;20032;52.436;13.312;2023-02-22T15:52:56;10.00;99.90
33699;DHT22;20032;52.436;13.312;2023-02-22T15:55:26;9.90;99.90
33699;DHT22;20032;52.436;13.312;2023-02-22T15:57:53;9.90;99.90
33699;DHT22;20032;52.436;13.312;2023-02-22T16:00:24;10.00;99.90
33699;DHT22;20032;52.436;13.312;2023-02-22T16:02:50;10.00;99.90
33699;DHT22;20032;52.436;13.312;2023-02-22T16:05:16;10.00;99.90
33699;DHT22;20032;52.436;13.312;2023-02-22T16:07:48;9.90;99.90
33699;DHT22;20032;52.436;13.312;2023-02-22T16:10:20;9.90;99.90
33699;DHT22;20032;52.436;13.312;2023-02-22T16:12:47;9.90;99.90
33699;DHT22;20032;52.436;13.312;2023-02-22T16:15:16;9.80;99.90
33699;DHT22;20032;52.436;13.312;2023-02-22T16:17:42;9.90;99.90
33699;DHT22;20032;52.436;13.312;2023-02-22T16:22:42;9.80;99.90
33699;DHT22;20032;52.436;13.312;2023-02-22T16:25:23;9.80;99.90
33699;DHT22;20032;52.436;13.312;2023-02-22T16:27:55;9.80;99.90
33699;DHT22;20032;52.436;13.312;2023-02-22T16:30:36;9.80;99.90
33699;DHT22;20032;52.436;13.312;2023-02-22T16:33:05;9.70;99.90
33699;DHT22;20032;52.436;13.312;2023-02-22T16:35:34;9.60;99.90
33699;DHT22;20032;52.436;13.312;2023-02-22T16:38:02;9.50;99.90
33699;DHT22;20032;52.436;13.312;2023-02-22T16:40:39;9.50;99.90
33699;DHT22;20032;52.436;13.312;2023-02-22T16:43:12;9.40;99.90
33699;DHT22;20032;52.436;13.312;2023-02-22T16:45:39;9.40;99.90
33699;DHT22;20032;52.436;13.312;2023-02-22T16:48:18;9.40;99.90
33699;DHT22;20032;52.436;13.312;2023-02-22T16:50:45;9.30;99.90